Hlavní strana
METAR-TAF:

METAR-TAF

Letiště :

Adıyaman, Turecko

zeměpisná šířka: 37-43-54N, zeměpisná délka: 38-28-08E, výška: 675 m

Aktuální stav počasí

Zpráva byla vytvořena před 11 hodinami a 50 minutami, v 12:50 UTC
Jihozápadní vítr 8 kt, proměnlivý mezi jižním a západním
Teplota 33°C
Vlhkost vzduchu 21%
Tlak 1010 hPa
Viditelnost 10 km a více
Skoro jasno ve výšce 4000 ft

METAR: LTCP 221250Z 22008KT 180V260 9999 FEW040 33/08 Q1010

Čas: 03:40 (00:40 UTC)

Předpověď počasí

Zpráva byla vytvořena před 11 hodinami a 0 minutami, v 13:40 UTC
Předpověď platná od 22 v 15 UTC do 22 v 24 UTC
Jihojihozápadní vítr 14 kt
Viditelnost 10 km a více
Skoro jasno ve výšce 4000 ft
Změna
od 22 v 16 UTC do 22 v 18 UTC
vítr z různých směrů 2 kt
Viditelnost 10 km a více
Žádná oblačnost pod 1500 m, nevyskytují se cumulonimby.

TAF: LTCP 221340Z 2215/2224 21014KT 9999 FEW040 BECMG 2216/2218 VRB02KT CAVOK

Stav a předpovědi počasí z více než 4 000 letišť (zprávy METAR a TAF).

Červené a žluté tečky na mapě představují dostupné meteorologické stanice.

Když kurzor umístíte na tečku, zobrazí se název stanice.

Pak kliknutím zobrazíte stav a předpověď počasí.

Chcete-li změnit mapu, kliknutím na zelené tlačítko se znaménkem +mapu přiblížíte, kliknutím na zelené tlačítko se znaménkem – mapu oddálíte a kliknutím na zelené šipky přejdete na sousední mapy.


METAR-TAF: